Time;durP1;ratioP1;P1;durP2;ratioP2;P2;SDS_P1;SDS_P2;PMS_P1;PMS_P2;Temp;Humidity;BMP_temperature;BMP_pressure;BME280_temperature;BME280_humidity;BME280_pressure;Samples;Min_cycle;Max_cycle;Signal;HPM_P1;HPM_P2
2021/06/11 00:01:53;;;;;;;;;;;14.10;69.40;;;;;;5076350;28;19924;-75
2021/06/11 00:04:19;;;;;;;;;;;14.10;69.70;;;;;;5071364;28;19917;-75
2021/06/11 00:06:45;;;;;;;;;;;14.00;69.90;;;;;;5069743;28;19922;-75
2021/06/11 00:09:14;;;;;;;;;;;14.00;70.20;;;;;;5071539;28;19959;-74
2021/06/11 00:11:39;;;;;;;;;;;14.00;70.40;;;;;;5071648;28;19916;-75
2021/06/11 00:14:05;;;;;;;;;;;13.90;70.60;;;;;;5070820;28;19960;-73
2021/06/11 00:16:31;;;;;;;;;;;13.90;70.60;;;;;;5071458;28;19916;-76
2021/06/11 00:18:56;;;;;;;;;;;13.90;70.90;;;;;;5071097;28;19966;-74
2021/06/11 00:21:22;;;;;;;;;;;13.90;71.20;;;;;;5071297;28;20396;-74
2021/06/11 00:23:47;;;;;;;;;;;13.90;71.30;;;;;;5071134;28;19973;-75
2021/06/11 00:26:13;;;;;;;;;;;13.90;71.50;;;;;;5070989;28;19920;-74
2021/06/11 00:28:38;;;;;;;;;;;13.80;71.70;;;;;;5071331;28;19925;-74
2021/06/11 00:31:04;;;;;;;;;;;13.80;72.00;;;;;;5071232;28;20265;-74
2021/06/11 00:33:29;;;;;;;;;;;13.70;72.10;;;;;;5069432;28;19975;-73
2021/06/11 00:35:55;;;;;;;;;;;13.70;72.30;;;;;;5071324;28;19920;-74
2021/06/11 00:38:20;;;;;;;;;;;13.70;72.50;;;;;;5070706;28;19917;-74
2021/06/11 00:40:46;;;;;;;;;;;13.70;72.60;;;;;;5070024;28;19924;-75
2021/06/11 00:43:13;;;;;;;;;;;13.70;72.70;;;;;;5070867;28;19923;-74
2021/06/11 00:45:42;;;;;;;;;;;13.70;72.90;;;;;;5070813;28;19916;-75
2021/06/11 00:48:08;;;;;;;;;;;13.70;73.00;;;;;;5069753;28;20003;-75
2021/06/11 00:50:35;;;;;;;;;;;13.70;73.20;;;;;;5070926;28;20011;-74
2021/06/11 00:53:01;;;;;;;;;;;13.60;73.40;;;;;;5070353;28;20292;-75
2021/06/11 00:55:27;;;;;;;;;;;13.60;73.60;;;;;;5070934;28;19977;-73
2021/06/11 00:57:53;;;;;;;;;;;13.60;73.90;;;;;;5069141;28;20499;-75
2021/06/11 01:00:19;;;;;;;;;;;13.50;74.00;;;;;;5071104;28;19995;-75
2021/06/11 01:02:44;;;;;;;;;;;13.50;74.40;;;;;;5070877;28;19966;-74
2021/06/11 01:05:10;;;;;;;;;;;13.50;74.60;;;;;;5070365;28;19961;-74
2021/06/11 01:07:37;;;;;;;;;;;13.50;74.80;;;;;;5070886;28;19924;-74
2021/06/11 01:10:03;;;;;;;;;;;13.50;74.90;;;;;;5073028;28;19920;-73
2021/06/11 01:12:29;;;;;;;;;;;13.50;75.10;;;;;;5074533;28;20280;-74
2021/06/11 01:14:54;;;;;;;;;;;13.50;75.30;;;;;;5074164;28;20022;-74
2021/06/11 01:17:20;;;;;;;;;;;13.40;75.40;;;;;;5074221;28;19916;-75
2021/06/11 01:19:47;;;;;;;;;;;13.40;75.60;;;;;;5074347;28;19948;-75
2021/06/11 01:22:23;;;;;;;;;;;13.40;75.70;;;;;;5074385;28;19920;-73
2021/06/11 01:24:58;;;;;;;;;;;13.40;75.90;;;;;;5072419;28;19920;-74
2021/06/11 01:27:24;;;;;;;;;;;13.30;76.00;;;;;;5074343;28;19917;-74
2021/06/11 01:29:52;;;;;;;;;;;13.30;76.20;;;;;;5073996;28;19926;-74
2021/06/11 01:32:19;;;;;;;;;;;13.30;76.30;;;;;;5072952;28;19916;-74
2021/06/11 01:34:45;;;;;;;;;;;13.30;76.30;;;;;;5073456;28;19916;-74
2021/06/11 01:37:19;;;;;;;;;;;13.30;76.50;;;;;;5072717;28;20296;-75
2021/06/11 01:39:48;;;;;;;;;;;13.20;76.60;;;;;;5073613;28;19916;-74
2021/06/11 01:42:14;;;;;;;;;;;13.20;76.90;;;;;;5074078;28;20145;-75
2021/06/11 01:44:40;;;;;;;;;;;13.20;76.90;;;;;;5073710;28;19916;-75
2021/06/11 01:47:06;;;;;;;;;;;13.20;77.00;;;;;;5074480;28;19962;-74
2021/06/11 01:49:32;;;;;;;;;;;13.20;77.10;;;;;;5073792;28;20046;-74
2021/06/11 01:52:00;;;;;;;;;;;13.20;77.20;;;;;;5074216;28;20011;-74
2021/06/11 01:54:26;;;;;;;;;;;13.20;77.30;;;;;;5073084;28;19916;-75
2021/06/11 01:56:52;;;;;;;;;;;13.10;77.50;;;;;;5069715;28;20292;-75
2021/06/11 01:59:18;;;;;;;;;;;13.10;77.70;;;;;;5082616;28;19917;-74
2021/06/11 02:01:44;;;;;;;;;;;13.10;77.90;;;;;;5073776;28;19979;-75
2021/06/11 02:04:11;;;;;;;;;;;13.10;78.10;;;;;;5073411;28;20372;-74
2021/06/11 02:06:37;;;;;;;;;;;13.00;78.10;;;;;;5073281;28;20026;-74
2021/06/11 02:09:03;;;;;;;;;;;13.10;78.20;;;;;;5073558;28;20008;-75
2021/06/11 02:11:29;;;;;;;;;;;13.10;78.30;;;;;;5073053;28;19916;-75
2021/06/11 02:13:54;;;;;;;;;;;13.10;78.30;;;;;;5073167;28;19917;-75
2021/06/11 02:16:22;;;;;;;;;;;13.10;78.30;;;;;;5073478;28;20329;-74
2021/06/11 02:18:49;;;;;;;;;;;13.10;78.40;;;;;;5073080;28;19916;-73
2021/06/11 02:21:15;;;;;;;;;;;13.00;78.40;;;;;;5073750;28;19947;-74
2021/06/11 02:23:40;;;;;;;;;;;13.00;78.60;;;;;;5071682;28;19983;-75
2021/06/11 02:26:09;;;;;;;;;;;13.00;78.70;;;;;;5073110;28;19916;-75
2021/06/11 02:28:34;;;;;;;;;;;13.00;78.90;;;;;;5073176;28;19916;-75
2021/06/11 02:31:00;;;;;;;;;;;12.90;79.00;;;;;;5072644;28;20373;-74
2021/06/11 02:33:26;;;;;;;;;;;12.90;79.30;;;;;;5072872;28;19924;-75
2021/06/11 02:35:53;;;;;;;;;;;12.90;79.40;;;;;;5072988;28;19917;-75
2021/06/11 02:38:19;;;;;;;;;;;12.90;79.60;;;;;;5071010;28;19924;-74
2021/06/11 02:40:44;;;;;;;;;;;12.90;79.60;;;;;;5073028;28;19917;-75
2021/06/11 02:43:12;;;;;;;;;;;12.90;79.70;;;;;;5072407;28;19947;-75
2021/06/11 02:45:41;;;;;;;;;;;12.80;79.90;;;;;;5072452;28;19917;-74
2021/06/11 02:48:15;;;;;;;;;;;12.80;80.00;;;;;;5072634;28;20307;-74
2021/06/11 02:50:51;;;;;;;;;;;12.80;80.20;;;;;;5072541;28;19920;-74
2021/06/11 02:53:25;;;;;;;;;;;12.70;80.30;;;;;;5072309;28;20395;-75
2021/06/11 02:55:52;;;;;;;;;;;12.80;80.40;;;;;;5072133;28;19970;-75
2021/06/11 02:58:20;;;;;;;;;;;12.80;80.60;;;;;;5072272;28;20368;-75
2021/06/11 03:00:47;;;;;;;;;;;12.80;80.70;;;;;;5072123;28;19944;-75
2021/06/11 03:03:20;;;;;;;;;;;12.80;80.70;;;;;;5072196;28;19917;-75
2021/06/11 03:05:46;;;;;;;;;;;12.80;80.80;;;;;;5071960;28;19920;-74
2021/06/11 03:08:12;;;;;;;;;;;12.90;80.90;;;;;;5072132;28;20434;-75
2021/06/11 03:10:41;;;;;;;;;;;12.90;80.90;;;;;;5072272;28;19928;-74
2021/06/11 03:13:07;;;;;;;;;;;12.90;80.90;;;;;;5071603;28;19952;-75
2021/06/11 03:15:34;;;;;;;;;;;12.90;81.00;;;;;;5072264;28;19924;-73
2021/06/11 03:18:03;;;;;;;;;;;13.00;81.10;;;;;;5071844;28;20282;-74
2021/06/11 03:20:33;;;;;;;;;;;13.00;81.00;;;;;;5072193;28;19970;-75
2021/06/11 03:23:01;;;;;;;;;;;13.00;81.70;;;;;;5071361;28;19920;-74
2021/06/11 03:25:31;;;;;;;;;;;13.00;81.40;;;;;;5071983;28;20430;-73
2021/06/11 03:28:15;;;;;;;;;;;13.00;81.50;;;;;;5071933;28;19917;-74
2021/06/11 03:30:46;;;;;;;;;;;13.00;81.60;;;;;;5071675;28;19924;-74
2021/06/11 03:33:13;;;;;;;;;;;13.10;81.70;;;;;;5071236;28;19969;-74
2021/06/11 03:35:44;;;;;;;;;;;13.10;81.80;;;;;;5070121;28;19977;-74
2021/06/11 03:38:12;;;;;;;;;;;13.20;81.70;;;;;;5071632;28;20369;-75
2021/06/11 03:40:40;;;;;;;;;;;13.20;81.70;;;;;;5071515;28;19943;-75
2021/06/11 03:43:07;;;;;;;;;;;13.30;81.80;;;;;;5070262;28;20441;-74
2021/06/11 03:45:33;;;;;;;;;;;13.30;81.90;;;;;;5071731;28;19916;-74
2021/06/11 03:48:00;;;;;;;;;;;13.30;81.90;;;;;;5071320;28;19919;-74
2021/06/11 03:50:26;;;;;;;;;;;13.40;81.90;;;;;;5071806;28;19932;-73
2021/06/11 03:52:55;;;;;;;;;;;13.40;82.00;;;;;;5071094;28;19922;-75
2021/06/11 03:55:28;;;;;;;;;;;13.50;82.00;;;;;;5071837;28;19916;-74
2021/06/11 03:58:01;;;;;;;;;;;13.50;82.10;;;;;;5071456;28;19997;-74
2021/06/11 04:00:28;;;;;;;;;;;13.60;82.20;;;;;;5071842;28;19917;-74
2021/06/11 04:02:54;;;;;;;;;;;13.60;82.20;;;;;;5071511;28;19923;-74
2021/06/11 04:05:19;;;;;;;;;;;13.70;82.20;;;;;;5071409;28;19916;-74
2021/06/11 04:07:52;;;;;;;;;;;13.70;82.20;;;;;;5071417;28;20417;-74
2021/06/11 04:10:21;;;;;;;;;;;13.80;82.20;;;;;;5071138;28;20385;-76
2021/06/11 04:12:47;;;;;;;;;;;13.80;82.30;;;;;;5071392;28;19924;-73
2021/06/11 04:15:14;;;;;;;;;;;13.90;82.90;;;;;;5071547;28;19924;-76
2021/06/11 04:17:40;;;;;;;;;;;14.00;82.50;;;;;;5071018;28;19967;-73
2021/06/11 04:20:08;;;;;;;;;;;14.10;82.60;;;;;;5070235;28;19943;-73
2021/06/11 04:22:34;;;;;;;;;;;14.10;82.70;;;;;;5069720;28;19951;-74
2021/06/11 04:25:00;;;;;;;;;;;14.30;82.90;;;;;;5071230;28;19920;-73
2021/06/11 04:27:27;;;;;;;;;;;14.40;82.90;;;;;;5071169;28;19927;-74
2021/06/11 04:29:52;;;;;;;;;;;14.50;82.80;;;;;;5070865;28;20380;-74
2021/06/11 04:32:18;;;;;;;;;;;14.60;82.80;;;;;;5070242;28;19966;-74
2021/06/11 04:34:44;;;;;;;;;;;14.70;82.80;;;;;;5052538;28;20304;-74
2021/06/11 04:37:14;;;;;;;;;;;14.80;82.80;;;;;;5071253;28;20361;-75
2021/06/11 04:39:40;;;;;;;;;;;15.00;82.80;;;;;;5071326;28;19917;-75
2021/06/11 04:42:05;;;;;;;;;;;15.10;82.80;;;;;;5070947;28;20427;-74
2021/06/11 04:44:31;;;;;;;;;;;15.30;82.80;;;;;;5072809;28;19923;-75
2021/06/11 04:46:57;;;;;;;;;;;15.40;82.80;;;;;;5074951;28;19939;-74
2021/06/11 04:49:22;;;;;;;;;;;15.60;82.70;;;;;;5074611;28;19928;-74
2021/06/11 04:51:48;;;;;;;;;;;15.70;82.60;;;;;;5074940;28;20406;-73
2021/06/11 04:54:13;;;;;;;;;;;15.90;82.40;;;;;;5074279;28;20353;-74
2021/06/11 04:56:39;;;;;;;;;;;16.00;82.40;;;;;;5074771;28;20384;-74
2021/06/11 04:59:04;;;;;;;;;;;16.10;82.40;;;;;;5074838;28;20281;-73
2021/06/11 05:01:30;;;;;;;;;;;16.30;82.20;;;;;;5074472;28;20431;-75
2021/06/11 05:03:55;;;;;;;;;;;16.40;82.10;;;;;;5074447;28;19916;-74
2021/06/11 05:06:21;;;;;;;;;;;16.50;81.80;;;;;;5074640;28;19977;-74
2021/06/11 05:08:46;;;;;;;;;;;16.70;81.80;;;;;;5074160;28;19921;-74
2021/06/11 05:11:12;;;;;;;;;;;16.80;81.60;;;;;;5074487;28;19970;-74
2021/06/11 05:13:38;;;;;;;;;;;17.00;81.50;;;;;;5073856;28;19999;-73
2021/06/11 05:16:03;;;;;;;;;;;17.10;81.40;;;;;;5074388;28;19917;-74
2021/06/11 05:18:30;;;;;;;;;;;17.30;81.30;;;;;;5074370;28;19916;-74
2021/06/11 05:20:56;;;;;;;;;;;17.50;81.00;;;;;;5074071;28;19927;-73
2021/06/11 05:23:22;;;;;;;;;;;17.70;80.80;;;;;;5074102;28;19916;-74
2021/06/11 05:25:47;;;;;;;;;;;17.90;80.50;;;;;;5074202;28;19916;-74
2021/06/11 05:28:13;;;;;;;;;;;18.00;80.40;;;;;;5072606;28;20364;-74
2021/06/11 05:30:39;;;;;;;;;;;18.20;80.30;;;;;;5056283;28;19927;-74
2021/06/11 05:33:05;;;;;;;;;;;18.50;79.90;;;;;;5072277;28;19917;-74
2021/06/11 05:35:31;;;;;;;;;;;18.70;79.60;;;;;;5073978;28;19916;-74
2021/06/11 05:37:58;;;;;;;;;;;18.80;79.20;;;;;;5072689;28;19924;-73
2021/06/11 05:40:24;;;;;;;;;;;19.00;78.90;;;;;;5072117;28;19923;-74
2021/06/11 05:42:49;;;;;;;;;;;19.40;78.80;;;;;;5073700;28;20292;-73
2021/06/11 05:45:15;;;;;;;;;;;20.10;80.90;;;;;;5073412;28;19917;-73
2021/06/11 05:47:41;;;;;;;;;;;21.30;84.30;;;;;;5073698;28;20019;-74
2021/06/11 05:50:07;;;;;;;;;;;22.70;84.40;;;;;;5073661;28;19920;-74
2021/06/11 05:52:34;;;;;;;;;;;23.70;81.00;;;;;;5073290;28;19917;-73
2021/06/11 05:54:59;;;;;;;;;;;24.60;78.40;;;;;;5072774;28;19917;-73
2021/06/11 05:57:25;;;;;;;;;;;25.40;76.20;;;;;;5073553;28;20262;-74
2021/06/11 05:59:53;;;;;;;;;;;26.20;74.60;;;;;;5072888;28;20411;-74
2021/06/11 06:02:19;;;;;;;;;;;27.20;72.00;;;;;;5073628;28;19966;-73
2021/06/11 06:04:45;;;;;;;;;;;28.10;69.70;;;;;;5072900;28;19916;-73
2021/06/11 06:07:10;;;;;;;;;;;28.90;66.90;;;;;;5073579;28;19916;-74
2021/06/11 06:09:36;;;;;;;;;;;29.60;64.60;;;;;;5073390;28;19924;-75
2021/06/11 06:12:01;;;;;;;;;;;30.40;62.00;;;;;;5072795;28;20262;-74
2021/06/11 06:14:27;;;;;;;;;;;31.00;58.90;;;;;;5072766;28;20296;-74
2021/06/11 06:16:52;;;;;;;;;;;31.40;56.70;;;;;;5073122;28;19921;-74
2021/06/11 06:19:18;;;;;;;;;;;31.90;54.20;;;;;;5072560;28;19916;-74
2021/06/11 06:21:43;;;;;;;;;;;32.30;52.40;;;;;;5072895;28;19948;-74
2021/06/11 06:24:09;;;;;;;;;;;32.80;50.80;;;;;;5072368;28;20336;-73
2021/06/11 06:26:35;;;;;;;;;;;33.30;49.60;;;;;;5072546;28;19927;-74
2021/06/11 06:29:01;;;;;;;;;;;33.70;47.40;;;;;;5073022;28;19917;-73
2021/06/11 06:31:26;;;;;;;;;;;34.20;46.30;;;;;;5072446;28;19916;-75
2021/06/11 06:33:52;;;;;;;;;;;34.60;44.80;;;;;;5072036;28;19920;-76
2021/06/11 06:36:18;;;;;;;;;;;35.00;43.40;;;;;;5072760;28;19967;-75
2021/06/11 06:38:43;;;;;;;;;;;35.50;42.10;;;;;;5072207;28;19939;-73
2021/06/11 06:41:09;;;;;;;;;;;36.00;40.70;;;;;;5069195;28;19936;-73
2021/06/11 06:43:34;;;;;;;;;;;36.30;39.10;;;;;;5061214;28;20000;-74
2021/06/11 06:46:00;;;;;;;;;;;36.50;37.50;;;;;;5057522;28;19920;-73
2021/06/11 06:48:26;;;;;;;;;;;36.50;36.50;;;;;;5052659;28;19927;-74
2021/06/11 06:50:56;;;;;;;;;;;36.60;36.00;;;;;;5050820;28;19935;-72
2021/06/11 06:53:22;;;;;;;;;;;37.20;35.70;;;;;;5051578;28;19971;-74
2021/06/11 06:55:47;;;;;;;;;;;37.60;34.30;;;;;;5052180;28;19917;-71
2021/06/11 06:58:13;;;;;;;;;;;37.80;33.40;;;;;;5052131;28;19963;-74
2021/06/11 07:00:39;;;;;;;;;;;38.10;33.20;;;;;;5052331;28;19913;-74
2021/06/11 07:03:05;;;;;;;;;;;38.60;32.30;;;;;;5049390;28;21263;-72
2021/06/11 07:05:31;;;;;;;;;;;39.00;31.60;;;;;;5052033;28;19971;-73
2021/06/11 07:07:57;;;;;;;;;;;39.60;31.40;;;;;;5051243;28;20293;-73
2021/06/11 07:10:23;;;;;;;;;;;40.20;30.50;;;;;;5051719;28;20375;-73
2021/06/11 07:12:48;;;;;;;;;;;40.70;29.90;;;;;;5052088;28;20347;-74
2021/06/11 07:15:14;;;;;;;;;;;41.00;29.40;;;;;;5051792;28;19943;-72
2021/06/11 07:17:40;;;;;;;;;;;41.30;28.70;;;;;;5052210;28;19970;-74
2021/06/11 07:20:07;;;;;;;;;;;41.50;28.70;;;;;;5051872;28;19931;-74
2021/06/11 07:22:32;;;;;;;;;;;41.70;28.20;;;;;;5050819;28;20411;-73
2021/06/11 07:25:02;;;;;;;;;;;41.90;27.70;;;;;;5050128;28;19917;-74
2021/06/11 07:27:31;;;;;;;;;;;42.00;27.90;;;;;;5051404;28;19980;-74
2021/06/11 07:29:58;;;;;;;;;;;42.20;27.10;;;;;;5051676;28;20327;-74
2021/06/11 07:32:23;;;;;;;;;;;42.50;27.10;;;;;;5051606;28;19913;-74
2021/06/11 07:34:49;;;;;;;;;;;42.90;26.90;;;;;;5049747;28;19917;-73
2021/06/11 07:37:15;;;;;;;;;;;43.30;26.60;;;;;;5051691;28;20296;-74
2021/06/11 07:39:40;;;;;;;;;;;43.70;26.20;;;;;;5051554;28;19963;-74
2021/06/11 07:42:06;;;;;;;;;;;43.90;25.80;;;;;;5050002;28;20437;-74
2021/06/11 07:44:34;;;;;;;;;;;44.30;25.70;;;;;;5049498;28;19917;-74
2021/06/11 07:46:59;;;;;;;;;;;44.50;25.60;;;;;;5049691;28;20381;-74
2021/06/11 07:49:25;;;;;;;;;;;44.80;25.20;;;;;;5051561;28;19996;-75
2021/06/11 07:51:50;;;;;;;;;;;44.50;24.50;;;;;;5051526;28;19917;-75
2021/06/11 07:54:16;;;;;;;;;;;44.20;24.60;;;;;;5050740;28;19920;-73
2021/06/11 07:56:42;;;;;;;;;;;44.10;24.60;;;;;;5033448;28;20380;-76
2021/06/11 07:59:07;;;;;;;;;;;44.60;24.80;;;;;;5050786;28;20265;-73
2021/06/11 08:01:33;;;;;;;;;;;45.10;24.30;;;;;;5051410;28;19917;-74
2021/06/11 08:03:59;;;;;;;;;;;45.20;24.10;;;;;;5051066;28;19916;-74
2021/06/11 08:06:25;;;;;;;;;;;45.50;24.10;;;;;;5050679;28;20258;-71
2021/06/11 08:08:50;;;;;;;;;;;46.10;24.10;;;;;;5051226;28;19917;-75
2021/06/11 08:11:16;;;;;;;;;;;46.50;23.80;;;;;;5049644;28;19975;-74
2021/06/11 08:13:42;;;;;;;;;;;46.60;23.60;;;;;;5050417;28;20413;-74
2021/06/11 08:16:08;;;;;;;;;;;46.80;23.60;;;;;;5050997;28;19916;-73
2021/06/11 08:18:33;;;;;;;;;;;47.10;23.40;;;;;;5051471;28;19976;-73
2021/06/11 08:20:59;;;;;;;;;;;47.40;23.10;;;;;;5055290;28;19920;-73
2021/06/11 08:23:25;;;;;;;;;;;47.70;22.80;;;;;;5054963;28;19924;-74
2021/06/11 08:25:50;;;;;;;;;;;47.00;22.60;;;;;;5053713;28;19916;-73
2021/06/11 08:28:16;;;;;;;;;;;46.80;22.70;;;;;;5055231;28;20377;-74
2021/06/11 08:30:41;;;;;;;;;;;47.10;22.70;;;;;;5055309;28;19917;-75
2021/06/11 08:33:07;;;;;;;;;;;47.20;22.40;;;;;;5054377;28;20058;-75
2021/06/11 08:35:33;;;;;;;;;;;47.30;22.40;;;;;;5055187;28;20016;-73
2021/06/11 08:37:59;;;;;;;;;;;47.40;22.40;;;;;;5053433;28;20393;-75
2021/06/11 08:40:26;;;;;;;;;;;47.60;22.20;;;;;;5054746;28;20155;-75
2021/06/11 08:42:51;;;;;;;;;;;47.50;21.90;;;;;;5054690;28;19921;-74
2021/06/11 08:45:17;;;;;;;;;;;47.40;22.40;;;;;;5056101;28;19967;-73
2021/06/11 08:47:46;;;;;;;;;;;48.00;22.40;;;;;;5054860;28;19930;-75
2021/06/11 08:50:15;;;;;;;;;;;48.30;22.20;;;;;;5054931;28;20339;-74
2021/06/11 08:52:41;;;;;;;;;;;48.50;22.00;;;;;;5054542;28;19917;-73
2021/06/11 08:55:06;;;;;;;;;;;48.40;21.90;;;;;;5054279;28;19927;-74
2021/06/11 08:57:32;;;;;;;;;;;48.60;21.90;;;;;;5054217;28;19959;-75
2021/06/11 08:59:57;;;;;;;;;;;48.90;22.10;;;;;;5054264;28;20395;-73
2021/06/11 09:02:23;;;;;;;;;;;49.30;21.90;;;;;;5054697;28;20377;-74
2021/06/11 09:04:57;;;;;;;;;;;49.60;21.90;;;;;;5053894;28;20011;-74
2021/06/11 09:07:26;;;;;;;;;;;50.00;22.00;;;;;;5054630;28;19917;-76
2021/06/11 09:09:54;;;;;;;;;;;50.60;22.00;;;;;;5053704;28;20381;-72
2021/06/11 09:12:27;;;;;;;;;;;50.90;21.70;;;;;;5053286;28;20007;-73
2021/06/11 09:15:00;;;;;;;;;;;51.10;21.60;;;;;;5053882;28;19967;-73
2021/06/11 09:17:36;;;;;;;;;;;51.20;21.30;;;;;;5054020;28;19940;-73
2021/06/11 09:20:12;;;;;;;;;;;51.20;21.20;;;;;;5052563;28;19921;-72
2021/06/11 09:22:39;;;;;;;;;;;51.20;21.10;;;;;;5053854;28;19917;-73
2021/06/11 09:25:21;;;;;;;;;;;51.10;21.20;;;;;;5054005;28;19920;-72
2021/06/11 09:27:50;;;;;;;;;;;51.20;21.10;;;;;;5052252;28;19917;-74
2021/06/11 09:30:16;;;;;;;;;;;51.30;21.30;;;;;;5053056;28;20305;-74
2021/06/11 09:32:42;;;;;;;;;;;51.50;21.10;;;;;;5053605;28;19924;-72
2021/06/11 09:35:08;;;;;;;;;;;51.60;21.00;;;;;;5053927;28;19921;-74
2021/06/11 09:37:37;;;;;;;;;;;51.60;20.90;;;;;;5052406;28;19921;-73
2021/06/11 09:40:07;;;;;;;;;;;51.60;21.00;;;;;;5051974;28;19920;-73
2021/06/11 09:42:34;;;;;;;;;;;51.60;21.10;;;;;;5053785;28;19952;-74
2021/06/11 09:45:01;;;;;;;;;;;51.30;21.10;;;;;;5051472;28;20281;-73
2021/06/11 09:47:30;;;;;;;;;;;50.90;20.60;;;;;;5053551;28;19924;-73
2021/06/11 09:49:56;;;;;;;;;;;49.90;20.80;;;;;;5053106;28;20106;-72
2021/06/11 09:52:21;;;;;;;;;;;49.00;21.10;;;;;;5053290;28;19916;-73
2021/06/11 09:54:47;;;;;;;;;;;48.50;21.60;;;;;;5053195;28;19924;-72
2021/06/11 09:57:22;;;;;;;;;;;48.80;21.70;;;;;;5052893;28;20276;-73
2021/06/11 09:59:48;;;;;;;;;;;49.60;22.00;;;;;;5053683;28;19927;-74
2021/06/11 10:02:17;;;;;;;;;;;50.00;21.40;;;;;;5052826;28;19925;-73
2021/06/11 10:04:44;;;;;;;;;;;50.30;21.40;;;;;;5052936;28;19943;-74
2021/06/11 10:07:10;;;;;;;;;;;50.80;21.30;;;;;;5053205;28;20384;-72
2021/06/11 10:09:36;;;;;;;;;;;51.30;21.30;;;;;;5051391;28;20355;-73
2021/06/11 10:12:02;;;;;;;;;;;51.50;21.20;;;;;;5053350;28;19925;-75
2021/06/11 10:14:28;;;;;;;;;;;51.70;21.20;;;;;;5051389;28;19913;-73
2021/06/11 10:16:54;;;;;;;;;;;51.70;21.10;;;;;;5051441;28;20266;-75
2021/06/11 10:19:20;;;;;;;;;;;51.50;20.50;;;;;;5052982;28;19924;-73
2021/06/11 10:21:45;;;;;;;;;;;50.60;20.90;;;;;;5052640;28;19928;-72
2021/06/11 10:24:13;;;;;;;;;;;50.40;21.10;;;;;;5051389;28;19913;-74
2021/06/11 10:26:40;;;;;;;;;;;51.00;21.40;;;;;;5052870;28;20377;-73
2021/06/11 10:29:06;;;;;;;;;;;51.80;21.40;;;;;;5052562;28;20380;-74
2021/06/11 10:31:36;;;;;;;;;;;51.40;20.90;;;;;;5052664;28;19962;-73
2021/06/11 10:34:04;;;;;;;;;;;51.00;21.20;;;;;;5052109;28;19931;-73
2021/06/11 10:36:30;;;;;;;;;;;51.30;21.50;;;;;;5052674;28;19921;-72
2021/06/11 10:39:00;;;;;;;;;;;51.50;21.40;;;;;;5052638;28;19920;-74
2021/06/11 10:41:27;;;;;;;;;;;50.90;21.40;;;;;;5050910;28;19982;-72
2021/06/11 10:43:52;;;;;;;;;;;51.10;21.40;;;;;;5052340;28;19913;-73
2021/06/11 10:46:23;;;;;;;;;;;51.60;21.40;;;;;;5052233;28;20427;-73
2021/06/11 10:48:52;;;;;;;;;;;52.00;21.30;;;;;;5052394;28;19944;-73
2021/06/11 10:51:36;;;;;;;;;;;51.10;20.80;;;;;;5051619;28;19924;-72
2021/06/11 10:54:24;;;;;;;;;;;48.40;20.80;;;;;;5052036;28;19917;-73
2021/06/11 10:56:59;;;;;;;;;;;44.80;21.80;;;;;;5051713;28;20343;-73
2021/06/11 10:59:34;;;;;;;;;;;44.50;23.40;;;;;;5051989;28;19951;-73
2021/06/11 11:02:00;;;;;;;;;;;45.40;23.20;;;;;;5051994;28;19923;-73
2021/06/11 11:04:26;;;;;;;;;;;45.80;22.80;;;;;;5051584;28;20007;-74
2021/06/11 11:06:52;;;;;;;;;;;44.30;22.40;;;;;;5051579;28;19924;-73
2021/06/11 11:09:17;;;;;;;;;;;43.30;23.50;;;;;;5051977;28;19921;-73
2021/06/11 11:11:46;;;;;;;;;;;44.00;23.90;;;;;;5051886;28;19925;-73
2021/06/11 11:14:31;;;;;;;;;;;44.00;23.50;;;;;;5051151;28;19970;-75
2021/06/11 11:16:57;;;;;;;;;;;43.40;23.40;;;;;;5051774;28;19924;-75
2021/06/11 11:19:42;;;;;;;;;;;41.90;24.50;;;;;;5051422;28;20059;-74
2021/06/11 11:22:08;;;;;;;;;;;42.00;24.90;;;;;;5051360;28;20377;-74
2021/06/11 11:24:33;;;;;;;;;;;41.20;24.90;;;;;;5051674;28;19966;-72
2021/06/11 11:26:59;;;;;;;;;;;42.30;25.80;;;;;;5051652;28;20437;-73
2021/06/11 11:29:24;;;;;;;;;;;42.50;24.80;;;;;;5049766;28;19917;-74
2021/06/11 11:31:51;;;;;;;;;;;43.00;25.00;;;;;;5051713;28;19924;-74
2021/06/11 11:34:17;;;;;;;;;;;43.20;24.90;;;;;;5051092;28;19927;-72
2021/06/11 11:36:43;;;;;;;;;;;42.70;24.50;;;;;;5050064;28;19920;-72
2021/06/11 11:39:09;;;;;;;;;;;41.90;24.70;;;;;;5051784;28;20003;-73
2021/06/11 11:41:36;;;;;;;;;;;40.70;24.70;;;;;;5050948;28;20269;-72
2021/06/11 11:44:01;;;;;;;;;;;38.90;25.10;;;;;;5051364;28;19916;-73
2021/06/11 11:46:27;;;;;;;;;;;37.60;26.40;;;;;;5051343;28;20288;-73
2021/06/11 11:48:53;;;;;;;;;;;37.00;27.20;;;;;;5050907;28;19917;-74
2021/06/11 11:51:18;;;;;;;;;;;37.10;27.50;;;;;;5051229;28;19928;-73
2021/06/11 11:53:44;;;;;;;;;;;37.40;27.70;;;;;;5050415;28;19916;-72
2021/06/11 11:56:10;;;;;;;;;;;37.80;27.70;;;;;;5051436;28;19917;-74
2021/06/11 11:58:35;;;;;;;;;;;37.60;27.10;;;;;;5051323;28;19921;-74
2021/06/11 12:01:01;;;;;;;;;;;37.10;27.50;;;;;;5050791;28;20005;-72
2021/06/11 12:03:26;;;;;;;;;;;37.20;28.10;;;;;;5050937;28;20345;-72
2021/06/11 12:05:52;;;;;;;;;;;37.10;28.10;;;;;;5051277;28;19917;-74
2021/06/11 12:08:18;;;;;;;;;;;36.70;27.70;;;;;;5050827;28;19917;-75
2021/06/11 12:10:43;;;;;;;;;;;35.70;28.00;;;;;;5051331;28;19917;-72
2021/06/11 12:13:09;;;;;;;;;;;34.60;28.40;;;;;;5050448;28;20375;-69
2021/06/11 12:15:35;;;;;;;;;;;33.60;29.20;;;;;;5051243;28;19917;-75
2021/06/11 12:18:00;;;;;;;;;;;32.90;29.80;;;;;;5051201;28;19942;-73
2021/06/11 12:20:32;;;;;;;;;;;32.50;30.70;;;;;;5050685;28;20362;-72
2021/06/11 12:22:58;;;;;;;;;;;32.20;31.00;;;;;;5049810;28;19984;-72
2021/06/11 12:25:23;;;;;;;;;;;32.10;31.70;;;;;;5050614;28;20377;-74
2021/06/11 12:27:49;;;;;;;;;;;32.20;31.90;;;;;;5051468;28;19924;-74
2021/06/11 12:30:15;;;;;;;;;;;32.20;32.20;;;;;;5051180;28;19917;-73
2021/06/11 12:32:41;;;;;;;;;;;32.10;32.30;;;;;;5050674;28;19917;-74
2021/06/11 12:35:07;;;;;;;;;;;32.10;32.30;;;;;;5048442;28;20012;-74
2021/06/11 12:37:32;;;;;;;;;;;32.00;32.30;;;;;;5032980;28;20471;-74
2021/06/11 12:40:00;;;;;;;;;;;31.70;32.10;;;;;;5050225;28;19923;-74
2021/06/11 12:42:31;;;;;;;;;;;31.60;33.10;;;;;;5051071;28;19917;-74
2021/06/11 12:44:57;;;;;;;;;;;31.70;33.50;;;;;;5049958;28;19960;-73
2021/06/11 12:47:23;;;;;;;;;;;31.90;33.30;;;;;;5050680;28;19948;-73
2021/06/11 12:49:48;;;;;;;;;;;31.90;33.20;;;;;;5050896;28;20407;-74
2021/06/11 12:52:14;;;;;;;;;;;31.70;33.00;;;;;;5048997;28;19920;-72
2021/06/11 12:54:40;;;;;;;;;;;31.40;33.30;;;;;;5050482;28;19913;-73
2021/06/11 12:57:06;;;;;;;;;;;31.20;33.90;;;;;;5049993;28;19933;-73
2021/06/11 12:59:34;;;;;;;;;;;31.30;34.60;;;;;;5047977;28;20231;-72
2021/06/11 13:01:59;;;;;;;;;;;31.40;34.80;;;;;;5051093;28;19917;-73
2021/06/11 13:04:25;;;;;;;;;;;31.40;34.30;;;;;;5067400;28;19924;-71
2021/06/11 13:06:51;;;;;;;;;;;31.00;34.40;;;;;;5078464;28;20258;-72
2021/06/11 13:09:16;;;;;;;;;;;30.80;35.10;;;;;;5087675;28;19932;-74
2021/06/11 13:11:42;;;;;;;;;;;30.70;35.50;;;;;;5071723;28;20435;-73
2021/06/11 13:14:07;;;;;;;;;;;30.90;35.80;;;;;;5064418;28;19928;-74
2021/06/11 13:16:33;;;;;;;;;;;30.90;35.50;;;;;;5062617;28;19947;-71
2021/06/11 13:18:59;;;;;;;;;;;30.90;35.60;;;;;;5062137;28;20055;-72
2021/06/11 13:21:24;;;;;;;;;;;30.70;35.40;;;;;;5063470;28;19934;-71
2021/06/11 13:23:50;;;;;;;;;;;30.50;35.70;;;;;;5062372;28;19917;-70
2021/06/11 13:26:15;;;;;;;;;;;30.40;35.90;;;;;;5064496;28;19932;-72
2021/06/11 13:28:41;;;;;;;;;;;30.20;36.20;;;;;;5062996;28;19920;-71
2021/06/11 13:31:06;;;;;;;;;;;30.00;36.30;;;;;;5060847;28;19932;-70
2021/06/11 13:33:32;;;;;;;;;;;29.80;36.50;;;;;;5062675;28;19947;-72
2021/06/11 13:36:01;;;;;;;;;;;29.60;37.20;;;;;;5053744;28;20388;-72
2021/06/11 13:38:27;;;;;;;;;;;29.60;37.70;;;;;;5059449;28;20028;-73
2021/06/11 13:40:52;;;;;;;;;;;29.60;38.00;;;;;;5062941;28;20337;-74
2021/06/11 13:43:18;;;;;;;;;;;29.70;38.40;;;;;;5061104;28;19917;-73
2021/06/11 13:45:44;;;;;;;;;;;29.70;38.40;;;;;;5055882;28;19917;-73
2021/06/11 13:48:10;;;;;;;;;;;29.80;38.50;;;;;;5052074;28;20324;-73
2021/06/11 13:50:36;;;;;;;;;;;29.80;38.40;;;;;;5050269;28;19917;-72
2021/06/11 13:53:01;;;;;;;;;;;29.70;38.60;;;;;;5050724;28;19943;-74
2021/06/11 13:55:27;;;;;;;;;;;29.50;38.50;;;;;;5052661;28;19917;-72
2021/06/11 13:57:53;;;;;;;;;;;29.40;39.00;;;;;;5051819;28;19963;-72
2021/06/11 14:00:20;;;;;;;;;;;29.30;39.40;;;;;;5063597;28;19934;-73
2021/06/11 14:02:47;;;;;;;;;;;29.30;39.50;;;;;;5071069;28;19982;-75
2021/06/11 14:05:13;;;;;;;;;;;29.40;40.20;;;;;;5069611;28;19921;-73
2021/06/11 14:07:39;;;;;;;;;;;29.50;40.00;;;;;;5064151;28;20276;-74
2021/06/11 14:10:06;;;;;;;;;;;29.50;39.50;;;;;;5059202;28;19913;-74
2021/06/11 14:12:32;;;;;;;;;;;29.40;39.60;;;;;;5060359;28;20381;-75
2021/06/11 14:14:59;;;;;;;;;;;29.20;40.00;;;;;;5052528;28;19924;-73